Time,TemperatureF,DewpointF,PressureIn,WindDirection,WindDirectionDegrees,WindSpeedMPH,WindSpeedGustMPH,Humidity,HourlyPrecipIn,Conditions,Clouds,dailyrainin,SolarRadiationWatts/m^2,SoftwareType,DateUTC
2013-09-28 00:04:00,61.0,44.0,-100.00,SSE,168,6.0,15.0,54,0.00,,,0.01,0.000000,,2013-09-28 04:04:00,
2013-09-28 00:12:00,61.0,46.0,-100.00,South,182,5.0,12.0,57,0.00,,,0.01,0.000000,,2013-09-28 04:12:00,
2013-09-28 00:43:00,61.0,46.0,-100.00,South,182,5.0,12.0,57,0.00,,,0.01,0.000000,,2013-09-28 04:43:00,
2013-09-28 00:54:00,61.0,46.0,-100.00,South,182,5.0,12.0,57,0.00,,,0.01,0.000000,,2013-09-28 04:54:00,
2013-09-28 01:03:00,61.0,46.0,-100.00,South,182,5.0,12.0,57,0.00,,,0.01,0.000000,,2013-09-28 05:03:00,
2013-09-28 01:12:00,59.0,44.0,-100.00,SSE,167,6.0,15.0,58,0.00,,,0.01,0.000000,,2013-09-28 05:12:00,
2013-09-28 01:43:00,59.0,44.0,-100.00,SSE,167,6.0,15.0,58,0.00,,,0.01,0.000000,,2013-09-28 05:43:00,
2013-09-28 01:53:00,59.0,44.0,-100.00,SSE,167,6.0,15.0,58,0.00,,,0.01,0.000000,,2013-09-28 05:53:00,
2013-09-28 02:02:00,59.0,44.0,-100.00,SSE,167,6.0,15.0,58,0.00,,,0.01,0.000000,,2013-09-28 06:02:00,
2013-09-28 02:12:00,54.0,45.0,-100.00,SSE,153,4.0,10.0,72,0.00,,,0.01,0.000000,,2013-09-28 06:12:00,
2013-09-28 02:42:00,54.0,45.0,-100.00,SSE,153,4.0,10.0,72,0.00,,,0.01,0.000000,,2013-09-28 06:42:00,
2013-09-28 02:52:00,54.0,45.0,-100.00,SSE,153,4.0,10.0,72,0.00,,,0.01,0.000000,,2013-09-28 06:52:00,
2013-09-28 03:02:00,54.0,45.0,-100.00,SSE,153,4.0,10.0,72,0.00,,,0.01,0.000000,,2013-09-28 07:02:00,
2013-09-28 03:12:00,52.0,48.0,-100.00,South,181,3.0,9.0,86,0.00,,,0.01,0.000000,,2013-09-28 07:12:00,
2013-09-28 03:42:00,52.0,48.0,-100.00,South,181,3.0,9.0,86,0.00,,,0.01,0.000000,,2013-09-28 07:42:00,
2013-09-28 03:52:00,52.0,48.0,-100.00,South,181,3.0,9.0,86,0.00,,,0.01,0.000000,,2013-09-28 07:52:00,
2013-09-28 04:02:00,52.0,48.0,-100.00,South,181,3.0,9.0,86,0.00,,,0.01,0.000000,,2013-09-28 08:02:00,
2013-09-28 04:43:00,53.0,51.0,-100.00,SSE,164,3.0,8.0,94,0.00,,,0.01,0.000000,,2013-09-28 08:43:00,
2013-09-28 04:53:00,53.0,51.0,-100.00,SSE,164,3.0,8.0,94,0.00,,,0.01,0.000000,,2013-09-28 08:53:00,
2013-09-28 05:02:00,53.0,51.0,-100.00,SSE,164,3.0,8.0,94,0.00,,,0.01,0.000000,,2013-09-28 09:02:00,
2013-09-28 05:11:00,53.0,51.0,-100.00,SSE,164,3.0,8.0,94,0.00,,,0.01,0.000000,,2013-09-28 09:11:00,
2013-09-28 05:12:00,54.0,53.0,-100.00,SSE,156,4.0,9.0,97,0.00,,,0.01,0.000000,,2013-09-28 09:12:00,
2013-09-28 05:43:00,54.0,53.0,-100.00,SSE,156,4.0,9.0,97,0.00,,,0.01,0.000000,,2013-09-28 09:43:00,
2013-09-28 05:54:00,54.0,53.0,-100.00,SSE,156,4.0,9.0,97,0.00,,,0.01,0.000000,,2013-09-28 09:54:00,
2013-09-28 06:03:00,54.0,53.0,-100.00,SSE,156,4.0,9.0,97,0.00,,,0.01,0.000000,,2013-09-28 10:03:00,
2013-09-28 06:12:00,53.0,52.0,-100.00,SSE,148,5.0,12.0,98,0.00,,,0.00,0.000000,,2013-09-28 10:12:00,
2013-09-28 06:43:00,53.0,52.0,-100.00,SSE,148,5.0,12.0,98,0.00,,,0.00,0.000000,,2013-09-28 10:43:00,
2013-09-28 06:52:00,53.0,52.0,-100.00,SSE,148,5.0,12.0,98,0.00,,,0.00,0.000000,,2013-09-28 10:52:00,
2013-09-28 07:03:00,53.0,52.0,-100.00,SSE,148,5.0,12.0,98,0.00,,,0.00,0.000000,,2013-09-28 11:03:00,
2013-09-28 07:12:00,53.0,52.0,-100.00,SSE,156,6.0,13.0,98,0.00,,,0.00,0.000000,,2013-09-28 11:12:00,
2013-09-28 07:43:00,53.0,52.0,-100.00,SSE,156,6.0,13.0,98,0.00,,,0.00,0.000000,,2013-09-28 11:43:00,
2013-09-28 07:52:00,53.0,52.0,-100.00,SSE,156,6.0,13.0,98,0.00,,,0.00,0.000000,,2013-09-28 11:52:00,
2013-09-28 08:01:00,53.0,52.0,-100.00,SSE,156,6.0,13.0,98,0.00,,,0.00,0.000000,,2013-09-28 12:01:00,
2013-09-28 08:12:00,54.0,53.0,-100.00,SSE,160,5.0,13.0,97,0.00,,,0.00,9.000000,,2013-09-28 12:12:00,
2013-09-28 08:42:00,54.0,53.0,-100.00,SSE,160,5.0,13.0,97,0.00,,,0.00,9.000000,,2013-09-28 12:42:00,
2013-09-28 08:52:00,54.0,53.0,-100.00,SSE,160,5.0,13.0,97,0.00,,,0.00,9.000000,,2013-09-28 12:52:00,
2013-09-28 09:02:00,54.0,53.0,-100.00,SSE,160,5.0,13.0,97,0.00,,,0.00,9.000000,,2013-09-28 13:02:00,
2013-09-28 09:12:00,57.0,55.0,-100.00,SSE,157,7.0,13.0,94,0.00,,,0.00,102.000000,,2013-09-28 13:12:00,
2013-09-28 09:42:00,57.0,55.0,-100.00,SSE,157,7.0,13.0,94,0.00,,,0.00,102.000000,,2013-09-28 13:42:00,
2013-09-28 09:52:00,57.0,55.0,-100.00,SSE,157,7.0,13.0,94,0.00,,,0.00,102.000000,,2013-09-28 13:52:00,
2013-09-28 10:02:00,57.0,55.0,-100.00,SSE,157,7.0,13.0,94,0.00,,,0.00,102.000000,,2013-09-28 14:02:00,
2013-09-28 10:12:00,61.0,55.0,-100.00,SSE,162,8.0,17.0,80,0.00,,,0.00,307.000000,,2013-09-28 14:12:00,
2013-09-28 10:42:00,61.0,55.0,-100.00,SSE,162,8.0,17.0,80,0.00,,,0.00,307.000000,,2013-09-28 14:42:00,
2013-09-28 10:52:00,61.0,55.0,-100.00,SSE,162,8.0,17.0,80,0.00,,,0.00,307.000000,,2013-09-28 14:52:00,
2013-09-28 11:02:00,61.0,55.0,-100.00,SSE,162,8.0,17.0,80,0.00,,,0.00,307.000000,,2013-09-28 15:02:00,
2013-09-28 11:12:00,66.0,55.0,-100.00,SSE,165,8.0,19.0,68,0.00,,,0.00,477.000000,,2013-09-28 15:12:00,
2013-09-28 11:44:00,66.0,55.0,-100.00,SSE,165,8.0,19.0,68,0.00,,,0.00,477.000000,,2013-09-28 15:44:00,
2013-09-28 11:54:00,66.0,55.0,-100.00,SSE,165,8.0,19.0,68,0.00,,,0.00,477.000000,,2013-09-28 15:54:00,
2013-09-28 12:05:00,66.0,55.0,-100.00,SSE,165,8.0,19.0,68,0.00,,,0.00,477.000000,,2013-09-28 16:05:00,
2013-09-28 12:12:00,69.0,55.0,-100.00,South,173,8.0,18.0,62,0.00,,,0.00,558.000000,,2013-09-28 16:12:00,
2013-09-28 12:43:00,69.0,55.0,-100.00,South,173,8.0,18.0,62,0.00,,,0.00,558.000000,,2013-09-28 16:43:00,
2013-09-28 12:54:00,69.0,55.0,-100.00,South,173,8.0,18.0,62,0.00,,,0.00,558.000000,,2013-09-28 16:54:00,
2013-09-28 13:03:00,69.0,55.0,-100.00,South,173,8.0,18.0,62,0.00,,,0.00,558.000000,,2013-09-28 17:03:00,
2013-09-28 13:12:00,72.0,55.0,-100.00,SSE,165,10.0,22.0,56,0.00,,,0.00,664.000000,,2013-09-28 17:12:00,
2013-09-28 13:43:00,72.0,55.0,-100.00,SSE,165,10.0,22.0,56,0.00,,,0.00,664.000000,,2013-09-28 17:43:00,
2013-09-28 13:52:00,72.0,55.0,-100.00,SSE,165,10.0,22.0,56,0.00,,,0.00,664.000000,,2013-09-28 17:52:00,
2013-09-28 14:02:00,72.0,55.0,-100.00,SSE,165,10.0,22.0,56,0.00,,,0.00,664.000000,,2013-09-28 18:02:00,
2013-09-28 14:42:00,73.0,54.0,-100.00,SSE,165,12.0,23.0,52,0.00,,,0.00,676.000000,,2013-09-28 18:42:00,
2013-09-28 14:52:00,73.0,54.0,-100.00,SSE,165,12.0,23.0,52,0.00,,,0.00,676.000000,,2013-09-28 18:52:00,
2013-09-28 15:02:00,73.0,54.0,-100.00,SSE,165,12.0,23.0,52,0.00,,,0.00,676.000000,,2013-09-28 19:02:00,
2013-09-28 15:11:00,73.0,54.0,-100.00,SSE,165,12.0,23.0,52,0.00,,,0.00,676.000000,,2013-09-28 19:11:00,
2013-09-28 15:12:00,73.0,53.0,-100.00,SSE,165,12.0,29.0,50,0.00,,,0.00,680.000000,,2013-09-28 19:12:00,
2013-09-28 15:42:00,73.0,53.0,-100.00,SSE,165,12.0,29.0,50,0.00,,,0.00,680.000000,,2013-09-28 19:42:00,
2013-09-28 15:52:00,73.0,53.0,-100.00,SSE,165,12.0,29.0,50,0.00,,,0.00,680.000000,,2013-09-28 19:52:00,
2013-09-28 16:02:00,73.0,53.0,-100.00,SSE,165,12.0,29.0,50,0.00,,,0.00,680.000000,,2013-09-28 20:02:00,
2013-09-28 16:12:00,71.0,54.0,-100.00,SSE,159,13.0,30.0,54,0.00,,,0.00,514.000000,,2013-09-28 20:12:00,
2013-09-28 16:43:00,71.0,54.0,-100.00,SSE,159,13.0,30.0,54,0.00,,,0.00,514.000000,,2013-09-28 20:43:00,
2013-09-28 16:53:00,71.0,54.0,-100.00,SSE,159,13.0,30.0,54,0.00,,,0.00,514.000000,,2013-09-28 20:53:00,
2013-09-28 17:02:00,71.0,54.0,-100.00,SSE,159,13.0,30.0,54,0.00,,,0.00,514.000000,,2013-09-28 21:02:00,
2013-09-28 17:12:00,70.0,56.0,-100.00,SSE,159,10.0,28.0,62,0.00,,,0.00,434.000000,,2013-09-28 21:12:00,
2013-09-28 17:44:00,70.0,56.0,-100.00,SSE,159,10.0,28.0,62,0.00,,,0.00,434.000000,,2013-09-28 21:44:00,
2013-09-28 17:55:00,70.0,56.0,-100.00,SSE,159,10.0,28.0,62,0.00,,,0.00,434.000000,,2013-09-28 21:55:00,
2013-09-28 18:04:00,70.0,56.0,-100.00,SSE,159,10.0,28.0,62,0.00,,,0.00,434.000000,,2013-09-28 22:04:00,
2013-09-28 18:12:00,68.0,55.0,-100.00,SSE,165,9.0,31.0,64,0.00,,,0.00,257.000000,,2013-09-28 22:12:00,
2013-09-28 18:43:00,68.0,55.0,-100.00,SSE,165,9.0,31.0,64,0.00,,,0.00,257.000000,,2013-09-28 22:43:00,
2013-09-28 18:54:00,68.0,55.0,-100.00,SSE,165,9.0,31.0,64,0.00,,,0.00,257.000000,,2013-09-28 22:54:00,
2013-09-28 19:03:00,68.0,55.0,-100.00,SSE,165,9.0,31.0,64,0.00,,,0.00,257.000000,,2013-09-28 23:03:00,
2013-09-28 19:43:00,66.0,55.0,-100.00,SSE,156,9.0,24.0,68,0.00,,,0.00,30.000000,,2013-09-28 23:43:00,
2013-09-28 19:53:00,66.0,55.0,-100.00,SSE,156,9.0,24.0,68,0.00,,,0.00,30.000000,,2013-09-28 23:53:00,
2013-09-28 20:02:00,66.0,55.0,-100.00,SSE,156,9.0,24.0,68,0.00,,,0.00,30.000000,,2013-09-29 00:02:00,
2013-09-28 20:11:00,66.0,55.0,-100.00,SSE,156,9.0,24.0,68,0.00,,,0.00,30.000000,,2013-09-29 00:11:00,
2013-09-28 20:12:00,65.0,55.0,-100.00,SSE,160,10.0,24.0,71,0.00,,,0.00,1.000000,,2013-09-29 00:12:00,
2013-09-28 20:43:00,65.0,55.0,-100.00,SSE,160,10.0,24.0,71,0.00,,,0.00,1.000000,,2013-09-29 00:43:00,
2013-09-28 20:52:00,65.0,55.0,-100.00,SSE,160,10.0,24.0,71,0.00,,,0.00,1.000000,,2013-09-29 00:52:00,
2013-09-28 21:02:00,65.0,55.0,-100.00,SSE,160,10.0,24.0,71,0.00,,,0.00,1.000000,,2013-09-29 01:02:00,
2013-09-28 21:12:00,62.0,59.0,-100.00,South,182,6.0,23.0,89,0.05,,,0.05,0.000000,,2013-09-29 01:12:00,
2013-09-28 21:43:00,62.0,59.0,-100.00,South,182,6.0,23.0,89,0.05,,,0.05,0.000000,,2013-09-29 01:43:00,
2013-09-28 21:52:00,62.0,59.0,-100.00,South,182,6.0,23.0,89,0.05,,,0.05,0.000000,,2013-09-29 01:52:00,
2013-09-28 22:03:00,62.0,59.0,-100.00,South,182,6.0,23.0,89,0.05,,,0.05,0.000000,,2013-09-29 02:03:00,
2013-09-28 22:12:00,59.0,57.0,-100.00,WSW,250,6.0,15.0,93,0.07,,,0.12,0.000000,,2013-09-29 02:12:00,
2013-09-28 22:43:00,59.0,57.0,-100.00,WSW,250,6.0,15.0,93,0.07,,,0.12,0.000000,,2013-09-29 02:43:00,
2013-09-28 22:53:00,59.0,57.0,-100.00,WSW,250,6.0,15.0,93,0.07,,,0.12,0.000000,,2013-09-29 02:53:00,
2013-09-28 23:03:00,59.0,57.0,-100.00,WSW,250,6.0,15.0,93,0.07,,,0.12,0.000000,,2013-09-29 03:03:00,
2013-09-28 23:12:00,56.0,53.0,-100.00,WNW,286,4.0,13.0,91,0.05,,,0.17,0.000000,,2013-09-29 03:12:00,
2013-09-28 23:44:00,56.0,53.0,-100.00,WNW,286,4.0,13.0,91,0.05,,,0.17,0.000000,,2013-09-29 03:44:00,
2013-09-28 23:55:00,56.0,53.0,-100.00,WNW,286,4.0,13.0,91,0.05,,,0.17,0.000000,,2013-09-29 03:55:00,